createdAt,value
2022-12-03T00:00:46.132Z,-9.90
2022-12-03T00:03:14.575Z,-9.89
2022-12-03T00:05:48.882Z,-9.87
2022-12-03T00:08:21.167Z,-9.95
2022-12-03T00:10:49.005Z,-9.79
2022-12-03T00:13:16.852Z,-10.04
2022-12-03T00:15:45.252Z,-10.40
2022-12-03T00:18:13.190Z,-10.73
2022-12-03T00:20:41.049Z,-10.46
2022-12-03T00:23:09.278Z,-10.56
2022-12-03T00:25:37.031Z,-10.78
2022-12-03T00:28:05.055Z,-10.55
2022-12-03T00:30:33.313Z,-9.94
2022-12-03T00:33:01.348Z,-9.82
2022-12-03T00:35:29.218Z,-10.17
2022-12-03T00:37:57.449Z,-9.90
2022-12-03T00:40:25.316Z,-9.78
2022-12-03T00:42:53.105Z,-10.24
2022-12-03T00:45:21.248Z,-10.45
2022-12-03T00:47:48.916Z,-10.24
2022-12-03T00:50:16.827Z,-9.97
2022-12-03T00:52:45.030Z,-10.17
2022-12-03T00:55:12.847Z,-10.26
2022-12-03T00:57:40.727Z,-10.28
2022-12-03T01:00:10.243Z,-9.90
2022-12-03T01:02:38.070Z,-10.05
2022-12-03T01:05:06.943Z,-9.85
2022-12-03T01:07:36.584Z,-9.85
2022-12-03T01:10:05.960Z,-9.92
2022-12-03T01:12:33.562Z,-9.85
2022-12-03T01:15:05.696Z,-9.89
2022-12-03T01:17:33.497Z,-10.13
2022-12-03T01:20:12.047Z,-10.38
2022-12-03T01:22:39.788Z,-10.10
2022-12-03T01:25:08.272Z,-10.12
2022-12-03T01:27:35.997Z,-10.50
2022-12-03T01:30:05.329Z,-10.21
2022-12-03T01:32:33.457Z,-10.31
2022-12-03T01:35:01.543Z,-10.27
2022-12-03T01:37:31.718Z,-10.87
2022-12-03T01:39:59.864Z,-10.72
2022-12-03T01:42:32.015Z,-10.53
2022-12-03T01:45:01.724Z,-9.99
2022-12-03T01:47:37.186Z,-9.97
2022-12-03T01:50:14.878Z,-10.36
2022-12-03T01:52:43.043Z,-10.28
2022-12-03T01:55:18.554Z,-10.46
2022-12-03T01:57:53.154Z,-10.87
2022-12-03T02:00:24.152Z,-11.12
2022-12-03T02:02:55.701Z,-11.02
2022-12-03T02:05:32.767Z,-10.44
2022-12-03T02:08:01.261Z,-10.82
2022-12-03T02:10:35.170Z,-10.57
2022-12-03T02:13:08.068Z,-10.49
2022-12-03T02:15:40.420Z,-10.16
2022-12-03T02:18:09.401Z,-10.23
2022-12-03T02:20:47.409Z,-10.28
2022-12-03T02:23:36.773Z,-10.73
2022-12-03T02:26:05.115Z,-10.87
2022-12-03T02:28:33.205Z,-10.33
2022-12-03T02:31:01.165Z,-10.11
2022-12-03T02:33:33.049Z,-10.09
2022-12-03T02:36:03.782Z,-10.38
2022-12-03T02:38:35.626Z,-10.22
2022-12-03T02:41:09.737Z,-10.45
2022-12-03T02:43:38.879Z,-10.39
2022-12-03T02:46:08.572Z,-10.50
2022-12-03T02:48:39.106Z,-10.91
2022-12-03T02:51:10.923Z,-10.85
2022-12-03T02:53:45.839Z,-10.32
2022-12-03T02:56:24.781Z,-10.49
2022-12-03T02:58:55.394Z,-10.01
2022-12-03T03:01:23.898Z,-9.98
2022-12-03T03:03:53.132Z,-10.29
2022-12-03T03:06:21.757Z,-10.24
2022-12-03T03:08:50.299Z,-10.33
2022-12-03T03:11:18.070Z,-10.41
2022-12-03T03:13:48.767Z,-10.73
2022-12-03T03:16:17.065Z,-10.71
2022-12-03T03:18:45.144Z,-9.96
2022-12-03T03:21:13.512Z,-10.05
2022-12-03T03:23:41.679Z,-10.07
2022-12-03T03:26:14.852Z,-10.41
2022-12-03T03:28:46.673Z,-10.88
2022-12-03T03:31:18.366Z,-10.53
2022-12-03T03:33:48.547Z,-10.38
2022-12-03T03:36:17.143Z,-10.41
2022-12-03T03:38:48.191Z,-10.65
2022-12-03T03:41:17.142Z,-10.73
2022-12-03T03:43:46.513Z,-10.61
2022-12-03T03:46:14.915Z,-10.66
2022-12-03T03:48:44.145Z,-9.99
2022-12-03T03:51:13.517Z,-10.29
2022-12-03T03:53:44.709Z,-10.10
2022-12-03T03:56:13.138Z,-10.45
2022-12-03T03:58:41.204Z,-10.21
2022-12-03T04:01:09.888Z,-10.90
2022-12-03T04:03:38.177Z,-10.77
2022-12-03T04:06:06.643Z,-11.10
2022-12-03T04:08:34.482Z,-10.72
2022-12-03T04:11:21.541Z,-10.04
2022-12-03T04:13:50.562Z,-10.77
2022-12-03T04:16:18.738Z,-10.64
2022-12-03T04:18:47.906Z,-10.55
2022-12-03T04:21:37.254Z,-10.84
2022-12-03T04:24:10.388Z,-10.77
2022-12-03T04:26:56.509Z,-10.89
2022-12-03T04:29:24.966Z,-10.24
2022-12-03T04:32:10.965Z,-10.38
2022-12-03T04:34:57.696Z,-10.19
2022-12-03T04:37:25.496Z,-10.56
2022-12-03T04:39:53.770Z,-10.38
2022-12-03T04:42:21.842Z,-9.88
2022-12-03T04:44:50.456Z,-10.09
2022-12-03T04:47:20.931Z,-10.53
2022-12-03T04:49:50.868Z,-10.79
2022-12-03T04:52:20.258Z,-10.71
2022-12-03T04:54:48.184Z,-10.92
2022-12-03T04:57:16.135Z,-10.84
2022-12-03T04:59:47.143Z,-10.97
2022-12-03T05:02:14.937Z,-10.93
2022-12-03T05:04:42.743Z,-10.92
2022-12-03T05:07:11.675Z,-10.81
2022-12-03T05:09:42.539Z,-10.59
2022-12-03T05:12:10.608Z,-10.50
2022-12-03T05:14:38.710Z,-10.86
2022-12-03T05:17:06.717Z,-10.81
2022-12-03T05:19:57.520Z,-10.62
2022-12-03T05:22:25.714Z,-10.73
2022-12-03T05:24:53.719Z,-10.32
2022-12-03T05:27:24.567Z,-10.34
2022-12-03T05:29:53.222Z,-10.43
2022-12-03T05:32:21.264Z,-10.46
2022-12-03T05:34:49.127Z,-10.58
2022-12-03T05:37:17.388Z,-10.71
2022-12-03T05:39:45.336Z,-10.70
2022-12-03T05:42:31.464Z,-10.59
2022-12-03T05:44:59.634Z,-10.73
2022-12-03T05:47:27.505Z,-10.73
2022-12-03T05:49:55.380Z,-10.71
2022-12-03T05:52:23.636Z,-10.87
2022-12-03T05:54:54.766Z,-10.63
2022-12-03T05:57:23.096Z,-10.63
2022-12-03T05:59:51.022Z,-10.75
2022-12-03T06:02:18.921Z,-10.72
2022-12-03T06:04:47.027Z,-10.48
2022-12-03T06:07:17.967Z,-10.61
2022-12-03T06:09:45.758Z,-10.70
2022-12-03T06:12:14.068Z,-10.57
2022-12-03T06:14:42.091Z,-10.66
2022-12-03T06:17:09.888Z,-10.20
2022-12-03T06:19:38.315Z,-10.31
2022-12-03T06:22:06.157Z,-10.48
2022-12-03T06:24:33.882Z,-10.45
2022-12-03T06:27:02.061Z,-10.43
2022-12-03T06:29:30.021Z,-10.33
2022-12-03T06:31:57.843Z,-10.33
2022-12-03T06:34:25.876Z,-10.42
2022-12-03T06:36:53.756Z,-10.37
2022-12-03T06:39:22.220Z,-10.33
2022-12-03T06:41:50.463Z,-10.39
2022-12-03T06:44:18.339Z,-10.40
2022-12-03T06:46:46.416Z,-10.37
2022-12-03T06:49:14.613Z,-9.81
2022-12-03T06:51:42.391Z,-10.28
2022-12-03T06:54:10.209Z,-9.96
2022-12-03T06:56:44.893Z,-10.01
2022-12-03T06:59:16.963Z,-10.17
2022-12-03T07:01:45.315Z,-10.05
2022-12-03T07:04:13.156Z,-9.84
2022-12-03T07:06:41.010Z,-9.60
2022-12-03T07:09:09.078Z,-9.74
2022-12-03T07:11:40.809Z,-9.67
2022-12-03T07:14:11.737Z,-9.46
2022-12-03T07:16:40.468Z,-9.19
2022-12-03T07:19:08.454Z,-9.34
2022-12-03T07:21:36.596Z,-9.24
2022-12-03T07:24:04.549Z,-8.91
2022-12-03T07:26:32.380Z,-8.99
2022-12-03T07:29:04.301Z,-9.20
2022-12-03T07:31:32.219Z,-9.11
2022-12-03T07:34:01.675Z,-9.14
2022-12-03T07:36:32.593Z,-8.68
2022-12-03T07:39:00.776Z,-9.09
2022-12-03T07:41:28.529Z,-9.15
2022-12-03T07:43:56.812Z,-8.96
2022-12-03T07:46:25.171Z,-8.84
2022-12-03T07:48:53.002Z,-8.80
2022-12-03T07:51:20.963Z,-8.76
2022-12-03T07:53:49.104Z,-8.73
2022-12-03T07:56:17.008Z,-8.38
2022-12-03T07:58:48.142Z,-8.57
2022-12-03T08:01:16.240Z,-8.45
2022-12-03T08:03:44.615Z,-8.45
2022-12-03T08:06:12.412Z,-8.20
2022-12-03T08:08:44.013Z,-8.06
2022-12-03T08:11:16.860Z,-8.21
2022-12-03T08:13:47.896Z,-8.18
2022-12-03T08:16:21.913Z,-8.11
2022-12-03T08:18:51.159Z,-7.97
2022-12-03T08:21:21.852Z,-7.85
2022-12-03T08:23:49.852Z,-7.83
2022-12-03T08:26:25.471Z,-7.76
2022-12-03T08:28:54.279Z,-7.68
2022-12-03T08:31:33.536Z,-7.58
2022-12-03T08:34:18.424Z,-7.57
2022-12-03T08:36:47.885Z,-7.53
2022-12-03T08:39:34.272Z,-7.51
2022-12-03T08:42:39.190Z,-7.42
2022-12-03T08:45:29.530Z,-7.38
2022-12-03T08:48:04.215Z,-7.31
2022-12-03T08:50:43.942Z,-7.33
2022-12-03T08:53:14.656Z,-7.25
2022-12-03T08:55:53.717Z,-7.22
2022-12-03T08:58:33.673Z,-7.16
2022-12-03T09:01:11.248Z,-7.22
2022-12-03T09:03:47.068Z,-7.24
2022-12-03T09:06:15.262Z,-7.28
2022-12-03T09:08:43.448Z,-7.15
2022-12-03T09:11:11.430Z,-7.03
2022-12-03T09:13:39.793Z,-6.96
2022-12-03T09:16:07.978Z,-6.98
2022-12-03T09:18:38.912Z,-6.93
2022-12-03T09:21:07.652Z,-6.97
2022-12-03T09:23:35.685Z,-6.95
2022-12-03T09:26:03.461Z,-6.98
2022-12-03T09:28:37.670Z,-6.91
2022-12-03T09:31:05.579Z,-6.91
2022-12-03T09:33:36.913Z,-6.77
2022-12-03T09:36:05.126Z,-6.68
2022-12-03T09:38:33.533Z,-6.64
2022-12-03T09:41:01.469Z,-6.61
2022-12-03T09:44:02.856Z,-6.71
2022-12-03T09:46:23.402Z,-6.56
2022-12-03T09:48:51.640Z,-6.71
2022-12-03T09:51:20.432Z,-6.51
2022-12-03T09:53:49.896Z,-6.66
2022-12-03T09:56:23.642Z,-6.49
2022-12-03T09:58:51.992Z,-6.49
2022-12-03T10:01:22.433Z,-6.46
2022-12-03T10:03:53.873Z,-6.27
2022-12-03T10:06:25.024Z,-6.40
2022-12-03T10:08:56.514Z,-6.39
2022-12-03T10:11:26.131Z,-6.39
2022-12-03T10:13:58.930Z,-6.27
2022-12-03T10:16:30.460Z,-6.14
2022-12-03T10:19:01.212Z,-6.24
2022-12-03T10:21:38.312Z,-6.19
2022-12-03T10:24:22.076Z,-6.18
2022-12-03T10:26:52.212Z,-6.38
2022-12-03T10:29:33.615Z,-6.24
2022-12-03T10:32:09.599Z,-6.32
2022-12-03T10:34:40.696Z,-6.27
2022-12-03T10:37:20.577Z,-6.38
2022-12-03T10:39:58.054Z,-6.35
2022-12-03T10:42:31.746Z,-6.26
2022-12-03T10:45:13.010Z,-6.23
2022-12-03T10:47:41.382Z,-6.23
2022-12-03T10:50:20.554Z,-6.11
2022-12-03T10:52:48.557Z,-6.13
2022-12-03T10:55:16.946Z,-6.09
2022-12-03T10:57:48.568Z,-6.12
2022-12-03T11:00:19.677Z,-6.16
2022-12-03T11:02:56.773Z,-6.16
2022-12-03T11:05:28.662Z,-6.08
2022-12-03T11:07:57.342Z,-6.12
2022-12-03T11:10:25.632Z,-6.10
2022-12-03T11:13:30.794Z,-6.19
2022-12-03T11:15:59.909Z,-6.22
2022-12-03T11:18:37.238Z,-6.24
2022-12-03T11:21:11.834Z,-6.23
2022-12-03T11:23:46.323Z,-6.25
2022-12-03T11:26:29.458Z,-6.21
2022-12-03T11:28:59.007Z,-6.14
2022-12-03T11:31:45.442Z,-6.18
2022-12-03T11:34:22.954Z,-6.19
2022-12-03T11:37:12.596Z,-6.15
2022-12-03T11:39:53.349Z,-6.18
2022-12-03T11:42:27.679Z,-6.17
2022-12-03T11:45:05.697Z,-6.15
2022-12-03T11:47:42.601Z,-6.14
2022-12-03T11:50:36.128Z,-6.17
2022-12-03T11:53:27.255Z,-6.20
2022-12-03T11:56:09.321Z,-6.18
2022-12-03T11:58:39.900Z,-6.21
2022-12-03T12:01:08.821Z,-6.22
2022-12-03T12:03:49.629Z,-6.22
2022-12-03T12:06:20.800Z,-6.17
2022-12-03T12:08:51.793Z,-6.18
2022-12-03T12:11:34.382Z,-6.13
2022-12-03T12:14:06.246Z,-6.22
2022-12-03T12:16:51.670Z,-6.19
2022-12-03T12:19:31.951Z,-6.25
2022-12-03T12:22:27.463Z,-6.15
2022-12-03T12:24:58.085Z,-6.17
2022-12-03T12:27:51.317Z,-6.17
2022-12-03T12:30:22.061Z,-6.13
2022-12-03T12:32:58.088Z,-6.05
2022-12-03T12:35:28.455Z,-6.04
2022-12-03T12:38:11.074Z,-6.13
2022-12-03T12:40:41.105Z,-6.08
2022-12-03T12:43:14.412Z,-6.12
2022-12-03T12:45:45.827Z,-6.17
2022-12-03T12:48:13.661Z,-6.10
2022-12-03T12:50:47.361Z,-6.05
2022-12-03T12:53:26.601Z,-6.12
2022-12-03T12:56:01.923Z,-6.09
2022-12-03T12:58:33.668Z,-6.02
2022-12-03T13:01:12.243Z,-6.12
2022-12-03T13:03:43.789Z,-6.24
2022-12-03T13:06:16.303Z,-6.22
2022-12-03T13:08:49.320Z,-6.01
2022-12-03T13:11:45.974Z,-6.03
2022-12-03T13:14:22.630Z,-5.99
2022-12-03T13:16:57.160Z,-6.02
2022-12-03T13:19:27.630Z,-6.11
2022-12-03T13:22:01.901Z,-6.06
2022-12-03T13:24:33.423Z,-6.08
2022-12-03T13:27:26.027Z,-6.10
2022-12-03T13:30:07.716Z,-6.00
2022-12-03T13:32:38.220Z,-5.99
2022-12-03T13:35:26.593Z,-6.14
2022-12-03T13:37:59.353Z,-6.00
2022-12-03T13:40:35.243Z,-5.99
2022-12-03T13:43:16.094Z,-5.92
2022-12-03T13:45:47.466Z,-6.01
2022-12-03T13:48:36.041Z,-6.10
2022-12-03T13:51:30.187Z,-5.97
2022-12-03T13:53:59.612Z,-5.98
2022-12-03T13:56:33.334Z,-5.91
2022-12-03T13:59:04.708Z,-5.95
2022-12-03T14:01:33.025Z,-6.09
2022-12-03T14:04:01.761Z,-6.10
2022-12-03T14:06:29.731Z,-6.01
2022-12-03T14:08:57.673Z,-5.92
2022-12-03T14:11:47.220Z,-5.94
2022-12-03T14:14:15.127Z,-5.97
2022-12-03T14:16:43.614Z,-6.04
2022-12-03T14:19:12.049Z,-5.97
2022-12-03T14:21:40.275Z,-5.92
2022-12-03T14:24:08.671Z,-5.97
2022-12-03T14:26:38.812Z,-5.98
2022-12-03T14:29:08.955Z,-6.09
2022-12-03T14:31:37.481Z,-6.03
2022-12-03T14:34:05.319Z,-5.84
2022-12-03T14:36:32.958Z,-5.93
2022-12-03T14:39:01.093Z,-5.98
2022-12-03T14:41:47.341Z,-6.00
2022-12-03T14:44:18.485Z,-5.91
2022-12-03T14:46:46.368Z,-6.03
2022-12-03T14:49:14.729Z,-6.02
2022-12-03T14:51:43.053Z,-6.02
2022-12-03T14:54:11.126Z,-5.90
2022-12-03T14:56:39.016Z,-5.98
2022-12-03T14:59:07.206Z,-6.10
2022-12-03T15:01:35.197Z,-6.11
2022-12-03T15:04:03.452Z,-5.95
2022-12-03T15:06:34.641Z,-5.98
2022-12-03T15:09:02.935Z,-6.20
2022-12-03T15:11:31.186Z,-6.04
2022-12-03T15:13:59.033Z,-6.00
2022-12-03T15:16:27.042Z,-6.07
2022-12-03T15:18:55.396Z,-6.07
2022-12-03T15:21:25.781Z,-5.99
2022-12-03T15:23:53.469Z,-6.03
2022-12-03T15:26:24.651Z,-5.95
2022-12-03T15:28:52.735Z,-6.11
2022-12-03T15:31:20.984Z,-6.00
2022-12-03T15:33:49.481Z,-6.15
2022-12-03T15:36:17.422Z,-5.99
2022-12-03T15:38:45.300Z,-6.02
2022-12-03T15:41:29.419Z,-6.03
2022-12-03T15:43:59.498Z,-6.02
2022-12-03T15:46:28.285Z,-6.06
2022-12-03T15:48:56.598Z,-6.19
2022-12-03T15:51:25.158Z,-5.98
2022-12-03T15:53:53.606Z,-6.07
2022-12-03T15:56:21.513Z,-6.15
2022-12-03T15:58:49.314Z,-6.20
2022-12-03T16:01:20.487Z,-6.09
2022-12-03T16:03:48.899Z,-5.93
2022-12-03T16:06:18.482Z,-6.02
2022-12-03T16:08:47.039Z,-5.96
2022-12-03T16:11:15.342Z,-6.01
2022-12-03T16:13:46.509Z,-6.04
2022-12-03T16:16:14.991Z,-6.10
2022-12-03T16:18:43.920Z,-6.11
2022-12-03T16:21:20.821Z,-6.29
2022-12-03T16:23:53.717Z,-6.20
2022-12-03T16:26:22.224Z,-6.04
2022-12-03T16:28:50.310Z,-6.07
2022-12-03T16:31:22.041Z,-5.91
2022-12-03T16:33:50.170Z,-6.19
2022-12-03T16:36:18.463Z,-6.27
2022-12-03T16:38:46.542Z,-6.10
2022-12-03T16:41:17.665Z,-5.97
2022-12-03T16:43:48.696Z,-6.02
2022-12-03T16:46:19.451Z,-6.02
2022-12-03T16:48:56.648Z,-6.36
2022-12-03T16:51:27.879Z,-5.91
2022-12-03T16:53:56.119Z,-6.04
2022-12-03T16:56:23.996Z,-5.98
2022-12-03T16:58:51.975Z,-6.13
2022-12-03T17:01:23.712Z,-6.08
2022-12-03T17:03:51.682Z,-6.11
2022-12-03T17:06:19.979Z,-6.26
2022-12-03T17:08:50.052Z,-5.95
2022-12-03T17:11:18.619Z,-5.94
2022-12-03T17:13:46.547Z,-5.93
2022-12-03T17:16:15.016Z,-6.13
2022-12-03T17:18:43.197Z,-6.20
2022-12-03T17:21:11.195Z,-5.97
2022-12-03T17:23:39.582Z,-6.04
2022-12-03T17:26:11.277Z,-6.04
2022-12-03T17:28:39.583Z,-6.19
2022-12-03T17:31:07.518Z,-6.31
2022-12-03T17:33:35.448Z,-6.04
2022-12-03T17:36:04.298Z,-6.05
2022-12-03T17:38:38.638Z,-6.07
2022-12-03T17:41:28.181Z,-5.92
2022-12-03T17:44:33.377Z,-5.87
2022-12-03T17:47:14.657Z,-6.36
2022-12-03T17:49:49.860Z,-6.02
2022-12-03T17:52:33.386Z,-5.84
2022-12-03T17:55:13.193Z,-5.94
2022-12-03T17:57:53.697Z,-6.01
2022-12-03T18:00:34.295Z,-6.07
2022-12-03T18:03:13.438Z,-5.86
2022-12-03T18:05:47.329Z,-6.03
2022-12-03T18:08:27.731Z,-6.04
2022-12-03T18:11:03.721Z,-5.88
2022-12-03T18:13:41.045Z,-5.97
2022-12-03T18:16:19.261Z,-5.91
2022-12-03T18:19:04.642Z,-5.95
2022-12-03T18:21:40.198Z,-6.03
2022-12-03T18:24:23.429Z,-5.95
2022-12-03T18:27:05.458Z,-6.00
2022-12-03T18:29:44.549Z,-6.02
2022-12-03T18:32:29.203Z,-6.00
2022-12-03T18:35:08.964Z,-6.06
2022-12-03T18:37:47.851Z,-6.04
2022-12-03T18:40:31.112Z,-6.07
2022-12-03T18:43:13.600Z,-6.00
2022-12-03T18:45:56.655Z,-6.01
2022-12-03T18:48:33.683Z,-6.10
2022-12-03T18:51:30.101Z,-6.11
2022-12-03T18:54:14.895Z,-6.10
2022-12-03T18:56:54.618Z,-6.11
2022-12-03T18:59:34.760Z,-6.18
2022-12-03T19:03:00.671Z,-6.21
2022-12-03T19:05:29.939Z,-6.11
2022-12-03T19:08:19.603Z,-6.14
2022-12-03T19:11:06.746Z,-6.14
2022-12-03T19:13:49.239Z,-6.15
2022-12-03T19:16:25.249Z,-6.20
2022-12-03T19:19:02.776Z,-6.17
2022-12-03T19:21:41.307Z,-6.20
2022-12-03T19:24:26.573Z,-6.21
2022-12-03T19:27:03.408Z,-6.19
2022-12-03T19:29:41.617Z,-6.25
2022-12-03T19:32:17.578Z,-6.21
2022-12-03T19:34:55.781Z,-6.25
2022-12-03T19:37:29.663Z,-6.32
2022-12-03T19:40:04.693Z,-6.26
2022-12-03T19:42:38.878Z,-6.33
2022-12-03T19:45:16.170Z,-6.31
2022-12-03T19:47:55.114Z,-6.39
2022-12-03T19:50:30.049Z,-6.37
2022-12-03T19:53:03.853Z,-6.44
2022-12-03T19:55:41.353Z,-6.41
2022-12-03T19:58:14.557Z,-6.39
2022-12-03T20:00:49.523Z,-6.40
2022-12-03T20:03:24.550Z,-6.45
2022-12-03T20:05:56.418Z,-6.42
2022-12-03T20:08:31.529Z,-6.42
2022-12-03T20:11:16.183Z,-6.37
2022-12-03T20:13:56.285Z,-6.47
2022-12-03T20:16:29.407Z,-6.49
2022-12-03T20:19:00.037Z,-6.50
2022-12-03T20:21:33.267Z,-6.44
2022-12-03T20:24:01.499Z,-6.48
2022-12-03T20:26:29.871Z,-6.54
2022-12-03T20:28:59.024Z,-6.54
2022-12-03T20:31:30.064Z,-6.57
2022-12-03T20:34:00.623Z,-6.56
2022-12-03T20:36:32.848Z,-6.52
2022-12-03T20:39:03.281Z,-6.56
2022-12-03T20:41:31.872Z,-6.58
2022-12-03T20:43:59.670Z,-6.68
2022-12-03T20:46:29.960Z,-6.61
2022-12-03T20:48:59.172Z,-6.68
2022-12-03T20:51:30.359Z,-6.81
2022-12-03T20:54:00.414Z,-6.75
2022-12-03T20:56:39.576Z,-6.70
2022-12-03T20:59:11.264Z,-6.70
2022-12-03T21:01:40.375Z,-6.70
2022-12-03T21:04:10.225Z,-6.77
2022-12-03T21:06:38.087Z,-6.76
2022-12-03T21:09:07.447Z,-6.70
2022-12-03T21:11:36.722Z,-6.69
2022-12-03T21:14:05.307Z,-6.79
2022-12-03T21:17:07.279Z,-6.81
2022-12-03T21:19:27.966Z,-6.95
2022-12-03T21:21:55.832Z,-7.18
2022-12-03T21:24:23.732Z,-6.96
2022-12-03T21:26:51.840Z,-6.89
2022-12-03T21:29:19.648Z,-6.94
2022-12-03T21:31:47.345Z,-7.14
2022-12-03T21:34:15.670Z,-7.12
2022-12-03T21:36:43.660Z,-7.23
2022-12-03T21:39:11.554Z,-6.99
2022-12-03T21:41:39.764Z,-6.96
2022-12-03T21:44:07.633Z,-7.01
2022-12-03T21:47:11.086Z,-7.00
2022-12-03T21:49:24.100Z,-6.96
2022-12-03T21:51:54.670Z,-7.04
2022-12-03T21:54:22.549Z,-7.11
2022-12-03T21:56:50.754Z,-7.10
2022-12-03T21:59:18.665Z,-7.02
2022-12-03T22:01:47.458Z,-7.05
2022-12-03T22:04:15.886Z,-7.04
2022-12-03T22:06:43.769Z,-7.16
2022-12-03T22:09:11.641Z,-7.05
2022-12-03T22:11:39.821Z,-7.16
2022-12-03T22:14:08.846Z,-7.17
2022-12-03T22:16:36.791Z,-7.16
2022-12-03T22:19:08.014Z,-7.04
2022-12-03T22:21:35.946Z,-7.05
2022-12-03T22:24:03.852Z,-7.07
2022-12-03T22:26:33.440Z,-7.23
2022-12-03T22:29:03.070Z,-7.12
2022-12-03T22:31:30.911Z,-7.33
2022-12-03T22:33:59.155Z,-7.30
2022-12-03T22:36:26.909Z,-7.16
2022-12-03T22:38:54.780Z,-7.16
2022-12-03T22:41:23.469Z,-7.19
2022-12-03T22:43:51.260Z,-7.16
2022-12-03T22:46:19.155Z,-7.14
2022-12-03T22:48:47.936Z,-7.16
2022-12-03T22:51:21.784Z,-7.30
2022-12-03T22:54:01.380Z,-7.28
2022-12-03T22:56:30.837Z,-7.28
2022-12-03T22:58:59.381Z,-7.22
2022-12-03T23:01:30.227Z,-7.24
2022-12-03T23:03:58.801Z,-7.39
2022-12-03T23:06:28.276Z,-7.34
2022-12-03T23:08:56.977Z,-7.26
2022-12-03T23:11:25.982Z,-7.28
2022-12-03T23:13:55.103Z,-7.30
2022-12-03T23:16:26.586Z,-7.36
2022-12-03T23:18:54.934Z,-7.36
2022-12-03T23:21:29.911Z,-7.36
2022-12-03T23:24:03.897Z,-7.36
2022-12-03T23:26:35.936Z,-7.39
2022-12-03T23:29:06.305Z,-7.34
2022-12-03T23:31:34.865Z,-7.43
2022-12-03T23:34:03.056Z,-7.37
2022-12-03T23:36:33.013Z,-7.40
2022-12-03T23:39:00.841Z,-7.43
2022-12-03T23:41:28.720Z,-7.41
2022-12-03T23:43:57.388Z,-7.49
2022-12-03T23:46:27.566Z,-7.43
2022-12-03T23:48:55.646Z,-7.52
2022-12-03T23:51:25.056Z,-7.56
2022-12-03T23:53:54.419Z,-7.46
2022-12-03T23:56:25.668Z,-7.57
2022-12-03T23:58:53.915Z,-7.52
